createdAt,value
2022-08-09T00:00:49.100Z,0.00
2022-08-09T00:01:54.906Z,0.00
2022-08-09T00:02:51.433Z,0.00
2022-08-09T00:04:05.954Z,0.00
2022-08-09T00:05:03.493Z,0.00
2022-08-09T00:06:18.563Z,0.00
2022-08-09T00:06:49.020Z,0.00
2022-08-09T00:07:48.021Z,0.00
2022-08-09T00:08:47.999Z,0.00
2022-08-09T00:09:47.999Z,0.00
2022-08-09T00:10:47.979Z,0.00
2022-08-09T00:12:03.543Z,0.00
2022-08-09T00:12:52.450Z,0.00
2022-08-09T00:13:47.939Z,0.00
2022-08-09T00:14:47.946Z,0.00
2022-08-09T00:15:58.735Z,0.00
2022-08-09T00:16:48.908Z,0.00
2022-08-09T00:18:05.513Z,0.00
2022-08-09T00:18:48.889Z,0.00
2022-08-09T00:19:48.198Z,0.00
2022-08-09T00:20:49.834Z,0.00
2022-08-09T00:21:55.813Z,0.00
2022-08-09T00:22:48.837Z,0.00
2022-08-09T00:23:56.095Z,0.00
2022-08-09T00:24:48.827Z,0.00
2022-08-09T00:25:51.612Z,0.00
2022-08-09T00:26:47.859Z,0.00
2022-08-09T00:27:47.967Z,0.00
2022-08-09T00:28:52.406Z,0.00
2022-08-09T00:30:25.593Z,0.00
2022-08-09T00:30:48.748Z,0.00
2022-08-09T00:32:00.971Z,0.00
2022-08-09T00:32:48.727Z,0.00
2022-08-09T00:33:50.989Z,0.00
2022-08-09T00:34:52.324Z,0.00
2022-08-09T00:35:48.745Z,0.00
2022-08-09T00:36:47.677Z,0.00
2022-08-09T00:37:47.677Z,0.00
2022-08-09T00:38:51.294Z,0.00
2022-08-09T00:40:09.760Z,0.00
2022-08-09T00:40:52.735Z,0.00
2022-08-09T00:44:13.136Z,0.00
2022-08-09T00:44:15.501Z,0.00
2022-08-09T00:44:15.691Z,0.00
2022-08-09T00:44:48.585Z,0.00
2022-08-09T00:45:53.695Z,0.00
2022-08-09T00:46:55.772Z,0.00
2022-08-09T00:47:48.563Z,0.00
2022-08-09T00:48:47.632Z,0.00
2022-08-09T00:49:52.527Z,0.00
2022-08-09T00:50:52.319Z,0.00
2022-08-09T00:51:56.104Z,0.00
2022-08-09T00:52:48.493Z,0.00
2022-08-09T00:53:47.503Z,0.00
2022-08-09T00:54:47.478Z,0.00
2022-08-09T00:56:04.605Z,0.00
2022-08-09T00:56:48.463Z,0.00
2022-08-09T00:57:49.760Z,0.00
2022-08-09T00:58:49.107Z,0.00
2022-08-09T00:59:52.759Z,0.00
2022-08-09T01:00:48.450Z,0.00
2022-08-09T01:01:47.446Z,0.00
2022-08-09T01:02:47.404Z,0.00
2022-08-09T01:03:47.372Z,0.00
2022-08-09T01:04:47.383Z,0.00
2022-08-09T01:05:53.878Z,0.00
2022-08-09T01:06:53.763Z,0.00
2022-08-09T01:08:00.639Z,0.00
2022-08-09T01:08:49.483Z,0.00
2022-08-09T01:09:47.525Z,0.00
2022-08-09T01:10:47.293Z,0.00
2022-08-09T01:11:55.557Z,0.00
2022-08-09T01:12:48.275Z,0.00
2022-08-09T01:13:53.419Z,0.00
2022-08-09T01:14:48.270Z,0.00
2022-08-09T01:15:51.730Z,0.00
2022-08-09T01:16:49.408Z,0.00
2022-08-09T01:17:47.219Z,0.00
2022-08-09T01:18:47.644Z,0.00
2022-08-09T01:20:01.753Z,0.00
2022-08-09T01:20:48.191Z,0.00
2022-08-09T01:21:51.437Z,0.00
2022-08-09T01:22:48.207Z,0.00
2022-08-09T01:24:02.559Z,0.00
2022-08-09T01:24:50.422Z,0.00
2022-08-09T01:25:48.882Z,0.00
2022-08-09T01:26:47.119Z,0.00
2022-08-09T01:27:48.100Z,0.00
2022-08-09T01:28:47.087Z,0.00
2022-08-09T01:29:55.220Z,0.00
2022-08-09T01:30:51.835Z,0.00
2022-08-09T01:32:31.771Z,0.00
2022-08-09T01:32:48.068Z,0.00
2022-08-09T01:33:47.031Z,0.00
2022-08-09T01:34:47.018Z,0.00
2022-08-09T01:35:47.009Z,0.00
2022-08-09T01:36:48.020Z,0.00
2022-08-09T01:38:08.039Z,0.00
2022-08-09T01:38:47.978Z,0.00
2022-08-09T01:39:46.981Z,0.00
2022-08-09T01:40:52.884Z,0.00
2022-08-09T01:41:53.574Z,0.00
2022-08-09T01:42:47.942Z,0.00
2022-08-09T01:43:51.590Z,0.00
2022-08-09T01:44:47.899Z,0.00
2022-08-09T01:45:47.729Z,0.00
2022-08-09T01:46:47.093Z,0.00
2022-08-09T01:47:46.978Z,0.00
2022-08-09T01:48:46.868Z,0.00
2022-08-09T01:49:50.857Z,0.00
2022-08-09T01:50:48.205Z,0.00
2022-08-09T01:51:53.504Z,0.00
2022-08-09T01:52:47.816Z,0.00
2022-08-09T01:53:46.807Z,0.00
2022-08-09T01:54:46.786Z,0.00
2022-08-09T01:55:46.785Z,0.00
2022-08-09T01:56:51.486Z,0.00
2022-08-09T01:57:50.793Z,0.00
2022-08-09T01:58:49.057Z,0.00
2022-08-09T01:59:51.797Z,0.00
2022-08-09T02:00:50.426Z,0.00
2022-08-09T02:01:59.641Z,0.00
2022-08-09T02:02:47.714Z,0.00
2022-08-09T02:03:46.696Z,0.00
2022-08-09T02:04:46.676Z,0.00
2022-08-09T02:06:03.741Z,0.00
2022-08-09T02:06:58.368Z,0.00
2022-08-09T02:08:41.161Z,0.00
2022-08-09T02:08:58.363Z,0.00
2022-08-09T02:09:59.834Z,0.00
2022-08-09T02:10:51.131Z,0.00
2022-08-09T02:11:46.603Z,0.00
2022-08-09T02:12:46.592Z,0.00
2022-08-09T02:14:06.260Z,0.00
2022-08-09T02:14:47.564Z,0.00
2022-08-09T02:15:49.483Z,0.00
2022-08-09T02:16:59.054Z,0.00
2022-08-09T02:17:59.842Z,0.00
2022-08-09T02:18:47.783Z,0.00
2022-08-09T02:19:46.511Z,0.00
2022-08-09T02:20:46.503Z,0.00
2022-08-09T02:21:46.585Z,0.00
2022-08-09T02:22:46.634Z,0.00
2022-08-09T02:23:46.461Z,0.00
2022-08-09T02:24:51.819Z,0.00
2022-08-09T02:25:52.744Z,0.00
2022-08-09T02:26:47.439Z,0.00
2022-08-09T02:28:00.550Z,0.00
2022-08-09T02:28:47.401Z,0.00
2022-08-09T02:29:46.393Z,0.00
2022-08-09T02:30:46.548Z,0.00
2022-08-09T02:31:46.375Z,0.00
2022-08-09T02:32:46.371Z,0.00
2022-08-09T02:34:06.543Z,0.00
2022-08-09T02:34:51.926Z,0.00
2022-08-09T02:36:03.385Z,0.00
2022-08-09T02:36:47.527Z,0.00
2022-08-09T02:37:47.319Z,0.00
2022-08-09T02:38:47.744Z,0.00
2022-08-09T02:39:49.601Z,0.00
2022-08-09T02:40:46.363Z,0.00
2022-08-09T02:41:46.249Z,0.00
2022-08-09T02:42:46.251Z,0.00
2022-08-09T02:43:54.793Z,0.00
2022-08-09T02:44:47.290Z,0.00
2022-08-09T02:45:46.210Z,0.00
2022-08-09T02:46:46.199Z,0.00
2022-08-09T02:47:59.224Z,0.00
2022-08-09T02:48:47.178Z,0.00
2022-08-09T02:49:46.160Z,0.00
2022-08-09T02:50:47.160Z,0.00
2022-08-09T02:51:46.141Z,0.00
2022-08-09T02:52:46.138Z,0.00
2022-08-09T02:53:59.531Z,0.00
2022-08-09T02:54:53.988Z,0.00
2022-08-09T02:55:57.892Z,0.00
2022-08-09T02:56:50.965Z,0.00
2022-08-09T02:58:00.033Z,0.00
2022-08-09T02:58:47.058Z,0.00
2022-08-09T03:00:11.254Z,0.00
2022-08-09T03:00:57.649Z,0.00
2022-08-09T03:02:06.499Z,0.00
2022-08-09T03:02:59.810Z,0.00
2022-08-09T03:04:17.873Z,0.00
2022-08-09T03:04:46.995Z,0.00
2022-08-09T03:05:45.988Z,0.00
2022-08-09T03:06:45.976Z,0.00
2022-08-09T03:07:54.975Z,0.00
2022-08-09T03:08:47.530Z,0.00
2022-08-09T03:09:53.964Z,0.00
2022-08-09T03:10:50.772Z,0.00
2022-08-09T03:12:09.643Z,0.00
2022-08-09T03:12:49.336Z,0.00
2022-08-09T03:13:59.428Z,0.00
2022-08-09T03:14:46.875Z,0.00
2022-08-09T03:16:05.847Z,0.00
2022-08-09T03:16:48.130Z,0.00
2022-08-09T03:17:45.845Z,0.00
2022-08-09T03:18:46.834Z,0.00
2022-08-09T03:19:52.251Z,0.00
2022-08-09T03:20:46.806Z,0.00
2022-08-09T03:21:50.748Z,0.00
2022-08-09T03:22:54.650Z,0.00
2022-08-09T03:24:03.607Z,0.00
2022-08-09T03:24:52.611Z,0.00
2022-08-09T03:26:03.161Z,0.00
2022-08-09T03:26:47.219Z,0.00
2022-08-09T03:27:45.983Z,0.00
2022-08-09T03:28:45.722Z,0.00
2022-08-09T03:30:00.939Z,0.00
2022-08-09T03:30:48.895Z,0.00
2022-08-09T03:31:59.650Z,0.00
2022-08-09T03:32:46.684Z,0.00
2022-08-09T03:33:54.572Z,0.00
2022-08-09T03:34:48.225Z,0.00
2022-08-09T03:36:14.138Z,0.00
2022-08-09T03:36:58.356Z,4.00
2022-08-09T03:37:56.589Z,0.00
2022-08-09T03:38:46.603Z,0.00
2022-08-09T03:39:48.608Z,4.00
2022-08-09T03:40:46.582Z,0.00
2022-08-09T03:41:48.416Z,4.00
2022-08-09T03:42:45.572Z,0.00
2022-08-09T03:44:03.830Z,4.00
2022-08-09T03:44:46.535Z,0.00
2022-08-09T03:46:05.222Z,4.00
2022-08-09T03:46:46.606Z,4.00
2022-08-09T03:47:46.768Z,4.00
2022-08-09T03:48:50.967Z,4.00
2022-08-09T03:49:58.036Z,4.00
2022-08-09T03:50:46.470Z,4.00
2022-08-09T03:51:58.074Z,8.00
2022-08-09T03:52:46.450Z,8.00
2022-08-09T03:53:45.432Z,12.00
2022-08-09T03:54:45.469Z,12.00
2022-08-09T03:55:45.418Z,16.00
2022-08-09T03:56:46.647Z,16.00
2022-08-09T03:57:57.418Z,20.00
2022-08-09T03:58:46.380Z,20.00
2022-08-09T03:59:54.530Z,24.00
2022-08-09T04:00:47.840Z,24.00
2022-08-09T04:01:45.705Z,24.00
2022-08-09T04:02:45.340Z,32.00
2022-08-09T04:04:01.139Z,32.00
2022-08-09T04:04:46.406Z,36.00
2022-08-09T04:05:45.299Z,40.00
2022-08-09T04:06:49.260Z,44.00
2022-08-09T04:07:52.885Z,48.00
2022-08-09T04:08:46.728Z,48.00
2022-08-09T04:09:49.786Z,52.00
2022-08-09T04:10:47.984Z,56.00
2022-08-09T04:11:45.228Z,60.00
2022-08-09T04:12:45.558Z,68.00
2022-08-09T04:14:53.615Z,68.00
2022-08-09T04:15:01.113Z,72.00
2022-08-09T04:16:19.442Z,76.00
2022-08-09T04:16:46.175Z,80.00
2022-08-09T04:17:47.490Z,88.00
2022-08-09T04:18:45.825Z,92.00
2022-08-09T04:19:51.151Z,96.00
2022-08-09T04:20:46.136Z,100.00
2022-08-09T04:21:45.118Z,104.00
2022-08-09T04:22:45.119Z,108.00
2022-08-09T04:23:54.552Z,112.00
2022-08-09T04:24:46.095Z,120.00
2022-08-09T04:25:45.067Z,124.00
2022-08-09T04:26:46.057Z,128.00
2022-08-09T04:27:46.686Z,132.00
2022-08-09T04:28:46.840Z,136.00
2022-08-09T04:29:50.157Z,140.00
2022-08-09T04:30:46.065Z,144.00
2022-08-09T04:31:47.287Z,148.00
2022-08-09T04:32:46.651Z,152.00
2022-08-09T04:33:52.977Z,160.00
2022-08-09T04:34:47.699Z,164.00
2022-08-09T04:35:45.975Z,168.00
2022-08-09T04:36:50.304Z,172.00
2022-08-09T04:37:46.732Z,176.00
2022-08-09T04:38:47.855Z,184.00
2022-08-09T04:39:49.286Z,184.00
2022-08-09T04:40:44.905Z,188.00
2022-08-09T04:41:44.885Z,192.00
2022-08-09T04:42:44.883Z,196.00
2022-08-09T04:43:53.611Z,200.00
2022-08-09T04:44:49.350Z,208.00
2022-08-09T04:45:53.642Z,208.00
2022-08-09T04:46:58.733Z,212.00
2022-08-09T04:47:58.778Z,216.00
2022-08-09T04:48:57.463Z,224.00
2022-08-09T04:49:55.109Z,228.00
2022-08-09T04:50:45.784Z,232.00
2022-08-09T04:51:44.772Z,232.00
2022-08-09T04:52:44.772Z,240.00
2022-08-09T04:53:44.753Z,244.00
2022-08-09T04:54:44.754Z,248.00
2022-08-09T04:55:57.897Z,252.00
2022-08-09T04:56:45.721Z,256.00
2022-08-09T04:57:54.164Z,260.00
2022-08-09T04:58:45.693Z,264.00
2022-08-09T04:59:45.693Z,268.00
2022-08-09T05:00:44.682Z,272.00
2022-08-09T05:01:44.673Z,276.00
2022-08-09T05:02:51.797Z,280.00
2022-08-09T05:03:45.675Z,284.00
2022-08-09T05:04:44.631Z,284.00
2022-08-09T05:05:52.655Z,292.00
2022-08-09T05:06:45.602Z,296.00
2022-08-09T05:07:46.479Z,300.00
2022-08-09T05:08:47.818Z,304.00
2022-08-09T05:09:49.383Z,304.00
2022-08-09T05:10:45.551Z,312.00
2022-08-09T05:11:44.550Z,316.00
2022-08-09T05:12:45.481Z,320.00
2022-08-09T05:13:44.532Z,320.00
2022-08-09T05:14:44.509Z,328.00
2022-08-09T05:15:47.989Z,336.00
2022-08-09T05:16:58.797Z,336.00
2022-08-09T05:18:38.521Z,344.00
2022-08-09T05:18:57.986Z,348.00
2022-08-09T05:19:46.300Z,348.00
2022-08-09T05:20:44.440Z,352.00
2022-08-09T05:21:47.310Z,356.00
2022-08-09T05:23:55.201Z,364.00
2022-08-09T05:23:55.697Z,364.00
2022-08-09T05:24:47.654Z,368.00
2022-08-09T05:25:44.390Z,376.00
2022-08-09T05:26:47.862Z,384.00
2022-08-09T05:27:46.284Z,388.00
2022-08-09T05:28:44.348Z,396.00
2022-08-09T05:29:44.358Z,400.00
2022-08-09T05:30:44.891Z,408.00
2022-08-09T05:31:49.167Z,412.00
2022-08-09T05:32:45.315Z,420.00
2022-08-09T05:33:45.293Z,428.00
2022-08-09T05:34:45.806Z,432.00
2022-08-09T05:35:49.766Z,440.00
2022-08-09T05:36:46.768Z,444.00
2022-08-09T05:37:47.531Z,452.00
2022-08-09T05:38:46.036Z,456.00
2022-08-09T05:39:44.766Z,464.00
2022-08-09T05:40:47.624Z,468.00
2022-08-09T05:41:45.206Z,472.00
2022-08-09T05:42:44.198Z,480.00
2022-08-09T05:43:45.289Z,484.00
2022-08-09T05:44:45.178Z,492.00
2022-08-09T05:45:56.632Z,496.00
2022-08-09T05:46:45.146Z,504.00
2022-08-09T05:47:52.194Z,512.00
2022-08-09T05:48:45.126Z,516.00
2022-08-09T05:50:25.296Z,528.00
2022-08-09T05:50:51.221Z,532.00
2022-08-09T05:51:46.500Z,544.00
2022-08-09T05:52:44.400Z,552.00
2022-08-09T05:53:56.476Z,560.00
2022-08-09T05:54:45.055Z,564.00
2022-08-09T05:55:44.045Z,576.00
2022-08-09T05:56:55.126Z,576.00
2022-08-09T05:57:51.006Z,584.00
2022-08-09T05:58:45.004Z,596.00
2022-08-09T05:59:44.003Z,596.00
2022-08-09T06:00:43.985Z,608.00
2022-08-09T06:01:44.214Z,608.00
2022-08-09T06:02:46.781Z,616.00
2022-08-09T06:03:58.193Z,624.00
2022-08-09T06:04:46.018Z,632.00
2022-08-09T06:05:54.512Z,636.00
2022-08-09T06:06:49.725Z,640.00
2022-08-09T06:07:44.904Z,644.00
2022-08-09T06:08:44.893Z,648.00
2022-08-09T06:10:01.510Z,656.00
2022-08-09T06:10:44.884Z,656.00
2022-08-09T06:11:57.723Z,656.00
2022-08-09T06:12:44.864Z,660.00
2022-08-09T06:13:44.864Z,668.00
2022-08-09T06:14:43.825Z,672.00
2022-08-09T06:15:43.873Z,672.00
2022-08-09T06:16:43.821Z,672.00
2022-08-09T06:17:44.795Z,672.00
2022-08-09T06:18:43.797Z,680.00
2022-08-09T06:19:43.773Z,680.00
2022-08-09T06:20:54.317Z,672.00
2022-08-09T06:21:50.409Z,676.00
2022-08-09T06:22:45.785Z,676.00
2022-08-09T06:23:57.460Z,684.00
2022-08-09T06:24:44.712Z,680.00
2022-08-09T06:25:43.703Z,684.00
2022-08-09T06:26:45.268Z,688.00
2022-08-09T06:27:51.627Z,688.00
2022-08-09T06:28:44.673Z,684.00
2022-08-09T06:29:58.307Z,692.00
2022-08-09T06:30:44.642Z,696.00
2022-08-09T06:32:08.770Z,692.00
2022-08-09T06:32:59.876Z,700.00
2022-08-09T06:33:48.719Z,700.00
2022-08-09T06:34:44.592Z,700.00
2022-08-09T06:35:57.312Z,700.00
2022-08-09T06:36:44.642Z,704.00
2022-08-09T06:37:53.192Z,704.00
2022-08-09T06:38:50.218Z,704.00
2022-08-09T06:39:57.457Z,708.00
2022-08-09T06:40:44.633Z,712.00
2022-08-09T06:42:09.043Z,708.00
2022-08-09T06:42:45.271Z,716.00
2022-08-09T06:43:43.492Z,712.00
2022-08-09T06:44:43.566Z,716.00
2022-08-09T06:46:05.266Z,720.00
2022-08-09T06:46:45.218Z,720.00
2022-08-09T06:47:43.488Z,720.00
2022-08-09T06:48:43.440Z,720.00
2022-08-09T06:49:52.310Z,724.00
2022-08-09T06:50:44.422Z,728.00
2022-08-09T06:51:43.413Z,728.00
2022-08-09T06:52:43.400Z,732.00
2022-08-09T06:53:43.428Z,736.00
2022-08-09T06:54:43.608Z,736.00
2022-08-09T06:55:43.360Z,736.00
2022-08-09T06:56:45.471Z,736.00
2022-08-09T06:58:02.885Z,740.00
2022-08-09T07:00:49.820Z,740.00
2022-08-09T07:00:50.247Z,744.00
2022-08-09T07:00:55.692Z,748.00
2022-08-09T07:01:54.486Z,748.00
2022-08-09T07:02:44.351Z,752.00
2022-08-09T07:03:53.180Z,752.00
2022-08-09T07:04:44.259Z,752.00
2022-08-09T07:05:53.791Z,756.00
2022-08-09T07:06:44.288Z,764.00
2022-08-09T07:08:00.524Z,764.00
2022-08-09T07:08:44.209Z,764.00
2022-08-09T07:09:57.035Z,764.00
2022-08-09T07:10:44.188Z,768.00
2022-08-09T07:11:45.562Z,772.00
2022-08-09T07:12:44.445Z,768.00
2022-08-09T07:13:45.306Z,768.00
2022-08-09T07:14:44.139Z,768.00
2022-08-09T07:16:35.204Z,776.00
2022-08-09T07:16:49.020Z,780.00
2022-08-09T07:17:55.948Z,776.00
2022-08-09T07:18:44.100Z,776.00
2022-08-09T07:19:43.078Z,784.00
2022-08-09T07:20:44.529Z,796.00
2022-08-09T07:21:43.083Z,784.00
2022-08-09T07:22:46.593Z,808.00
2022-08-09T07:23:56.279Z,796.00
2022-08-09T07:24:44.550Z,792.00
2022-08-09T07:25:44.014Z,792.00
2022-08-09T07:26:43.008Z,788.00
2022-08-09T07:27:53.452Z,800.00
2022-08-09T07:29:12.239Z,812.00
2022-08-09T07:29:43.995Z,816.00
2022-08-09T07:30:42.965Z,800.00
2022-08-09T07:31:45.475Z,804.00
2022-08-09T07:32:43.947Z,816.00
2022-08-09T07:33:52.673Z,816.00
2022-08-09T07:34:43.938Z,800.00
2022-08-09T07:35:54.321Z,808.00
2022-08-09T07:36:47.185Z,804.00
2022-08-09T07:37:45.256Z,804.00
2022-08-09T07:38:46.595Z,804.00
2022-08-09T07:39:43.907Z,812.00
2022-08-09T07:41:00.558Z,812.00
2022-08-09T07:41:43.827Z,816.00
2022-08-09T07:42:42.842Z,812.00
2022-08-09T07:43:49.836Z,816.00
2022-08-09T07:44:51.788Z,820.00
2022-08-09T07:45:43.796Z,816.00
2022-08-09T07:46:43.068Z,816.00
2022-08-09T07:48:00.636Z,816.00
2022-08-09T07:48:43.756Z,816.00
2022-08-09T07:50:05.391Z,820.00
2022-08-09T07:50:53.054Z,824.00
2022-08-09T07:52:05.484Z,820.00
2022-08-09T07:52:43.717Z,828.00
2022-08-09T07:54:04.340Z,828.00
2022-08-09T07:54:43.685Z,844.00
2022-08-09T07:56:03.476Z,836.00
2022-08-09T07:56:49.068Z,828.00
2022-08-09T07:57:47.191Z,836.00
2022-08-09T07:58:42.648Z,832.00
2022-08-09T07:59:52.160Z,844.00
2022-08-09T08:00:49.296Z,840.00
2022-08-09T08:01:43.645Z,848.00
2022-08-09T08:02:43.710Z,840.00
2022-08-09T08:03:42.598Z,840.00
2022-08-09T08:04:42.575Z,852.00
2022-08-09T08:05:53.814Z,852.00
2022-08-09T08:06:55.583Z,852.00
2022-08-09T08:09:00.003Z,884.00
2022-08-09T08:09:03.273Z,864.00
2022-08-09T08:09:51.486Z,876.00
2022-08-09T08:11:03.500Z,884.00
2022-08-09T08:12:11.112Z,864.00
2022-08-09T08:12:45.369Z,864.00
2022-08-09T08:13:56.106Z,864.00
2022-08-09T08:14:43.495Z,868.00
2022-08-09T08:15:42.453Z,872.00
2022-08-09T08:17:01.033Z,872.00
2022-08-09T08:17:53.409Z,884.00
2022-08-09T08:18:43.414Z,872.00
2022-08-09T08:19:42.404Z,880.00
2022-08-09T08:20:42.836Z,884.00
2022-08-09T08:21:42.375Z,880.00
2022-08-09T08:22:43.385Z,880.00
2022-08-09T08:23:43.374Z,888.00
2022-08-09T08:24:48.649Z,892.00
2022-08-09T08:25:46.286Z,892.00
2022-08-09T08:26:55.503Z,920.00
2022-08-09T08:27:43.411Z,896.00
2022-08-09T08:28:42.303Z,904.00
2022-08-09T08:29:45.255Z,904.00
2022-08-09T08:30:43.275Z,904.00
2022-08-09T08:32:03.317Z,904.00
2022-08-09T08:32:52.539Z,912.00
2022-08-09T08:33:53.436Z,924.00
2022-08-09T08:34:43.232Z,912.00
2022-08-09T08:35:58.785Z,916.00
2022-08-09T08:36:43.204Z,928.00
2022-08-09T08:38:02.127Z,932.00
2022-08-09T08:38:43.212Z,932.00
2022-08-09T08:39:44.437Z,932.00
2022-08-09T08:40:42.173Z,932.00
2022-08-09T08:41:51.740Z,960.00
2022-08-09T08:42:43.358Z,940.00
2022-08-09T08:43:42.174Z,940.00
2022-08-09T08:44:42.114Z,948.00
2022-08-09T08:45:50.764Z,964.00
2022-08-09T08:47:02.671Z,940.00
2022-08-09T08:47:44.953Z,940.00
2022-08-09T08:48:43.927Z,952.00
2022-08-09T08:49:46.851Z,956.00
2022-08-09T08:50:45.369Z,960.00
2022-08-09T08:52:01.665Z,964.00
2022-08-09T08:53:00.527Z,980.00
2022-08-09T08:54:04.520Z,980.00
2022-08-09T08:54:42.993Z,1008.00
2022-08-09T08:55:41.995Z,1000.00
2022-08-09T08:56:41.973Z,992.00
2022-08-09T08:57:41.972Z,1004.00
2022-08-09T08:58:44.422Z,1000.00
2022-08-09T08:59:46.452Z,996.00
2022-08-09T09:00:42.933Z,996.00
2022-08-09T09:01:52.489Z,1004.00
2022-08-09T09:02:42.979Z,1004.00
2022-08-09T09:03:41.975Z,1004.00
2022-08-09T09:04:52.621Z,1016.00
2022-08-09T09:05:58.617Z,1040.00
2022-08-09T09:06:42.864Z,1016.00
2022-08-09T09:07:42.391Z,1020.00
2022-08-09T09:08:42.385Z,1028.00
2022-08-09T09:09:59.614Z,1036.00
2022-08-09T09:10:42.834Z,1044.00
2022-08-09T09:11:41.814Z,1048.00
2022-08-09T09:12:41.806Z,1044.00
2022-08-09T09:13:55.132Z,1048.00
2022-08-09T09:14:42.784Z,1048.00
2022-08-09T09:15:41.764Z,1060.00
2022-08-09T09:16:42.754Z,1064.00
2022-08-09T09:17:46.464Z,1068.00
2022-08-09T09:18:48.182Z,1072.00
2022-08-09T09:19:42.749Z,1096.00
2022-08-09T09:20:41.706Z,1088.00
2022-08-09T09:21:43.341Z,1096.00
2022-08-09T09:22:42.730Z,1100.00
2022-08-09T09:23:41.673Z,1100.00
2022-08-09T09:24:43.538Z,1120.00
2022-08-09T09:26:02.307Z,1108.00
2022-08-09T09:26:44.717Z,1120.00
2022-08-09T09:28:04.212Z,1116.00
2022-08-09T09:29:03.472Z,1148.00
2022-08-09T09:30:11.466Z,1132.00
2022-08-09T09:30:42.735Z,1136.00
2022-08-09T09:32:03.912Z,1136.00
2022-08-09T09:32:42.572Z,1140.00
2022-08-09T09:33:44.844Z,1144.00
2022-08-09T09:34:41.553Z,1152.00
2022-08-09T09:35:46.207Z,1148.00
2022-08-09T09:36:51.127Z,1148.00
2022-08-09T09:37:42.512Z,1160.00
2022-08-09T09:38:41.502Z,1168.00
2022-08-09T09:39:54.800Z,1164.00
2022-08-09T09:40:42.548Z,1168.00
2022-08-09T09:41:49.769Z,1168.00
2022-08-09T09:42:42.891Z,1176.00
2022-08-09T09:44:11.003Z,1188.00
2022-08-09T09:44:42.442Z,1184.00
2022-08-09T09:45:56.871Z,1188.00
2022-08-09T09:46:45.667Z,1180.00
2022-08-09T09:47:56.695Z,1192.00
2022-08-09T09:48:42.401Z,1188.00
2022-08-09T09:50:06.838Z,1200.00
2022-08-09T09:50:49.610Z,1204.00
2022-08-09T09:51:42.352Z,1216.00
2022-08-09T09:52:42.353Z,1212.00
2022-08-09T09:53:57.411Z,1216.00
2022-08-09T09:54:42.322Z,1228.00
2022-08-09T09:55:42.427Z,1224.00
2022-08-09T09:58:00.098Z,1236.00
2022-08-09T09:58:04.218Z,1232.00
2022-08-09T09:58:42.283Z,1228.00
2022-08-09T09:59:41.272Z,1244.00
2022-08-09T10:00:41.262Z,1256.00
2022-08-09T10:01:42.244Z,1256.00
2022-08-09T10:02:41.242Z,1268.00
2022-08-09T10:03:42.804Z,1268.00
2022-08-09T10:04:41.211Z,1284.00
2022-08-09T10:06:03.248Z,1280.00
2022-08-09T10:06:42.790Z,1284.00
2022-08-09T10:08:10.676Z,1288.00
2022-08-09T10:08:42.713Z,1292.00
2022-08-09T10:09:45.893Z,1296.00
2022-08-09T10:10:42.154Z,1304.00
2022-08-09T10:11:53.574Z,1316.00
2022-08-09T10:12:43.885Z,1320.00
2022-08-09T10:13:43.400Z,1328.00
2022-08-09T10:14:47.894Z,1324.00
2022-08-09T10:16:09.121Z,1336.00
2022-08-09T10:16:57.052Z,1344.00
2022-08-09T10:17:55.839Z,1352.00
2022-08-09T10:18:42.077Z,1360.00
2022-08-09T10:19:42.092Z,1368.00
2022-08-09T10:20:44.693Z,1364.00
2022-08-09T10:21:41.055Z,1372.00
2022-08-09T10:22:41.239Z,1384.00
2022-08-09T10:23:41.013Z,1392.00
2022-08-09T10:24:41.031Z,1392.00
2022-08-09T10:26:06.998Z,1408.00
2022-08-09T10:26:41.972Z,1408.00
2022-08-09T10:27:56.239Z,1412.00
2022-08-09T10:28:44.052Z,1428.00
2022-08-09T10:30:43.580Z,1428.00
2022-08-09T10:32:13.259Z,1436.00
2022-08-09T10:32:48.431Z,1452.00
2022-08-09T10:34:08.805Z,1452.00
2022-08-09T10:34:41.913Z,1476.00
2022-08-09T10:35:40.863Z,1496.00
2022-08-09T10:36:42.281Z,1512.00
2022-08-09T10:37:42.008Z,1508.00
2022-08-09T10:38:56.069Z,1512.00
2022-08-09T10:39:49.504Z,1528.00
2022-08-09T10:40:44.682Z,1540.00
2022-08-09T10:41:42.065Z,1540.00
2022-08-09T10:42:40.792Z,1536.00
2022-08-09T10:43:46.979Z,1544.00
2022-08-09T10:44:41.779Z,1556.00
2022-08-09T10:45:42.412Z,1556.00
2022-08-09T10:46:54.609Z,1556.00
2022-08-09T10:48:19.424Z,1572.00
2022-08-09T10:48:41.721Z,1580.00
2022-08-09T10:49:50.788Z,1576.00
2022-08-09T10:50:41.712Z,1584.00
2022-08-09T10:51:41.460Z,1612.00
2022-08-09T10:52:42.610Z,1656.00
2022-08-09T10:53:46.967Z,1700.00
2022-08-09T10:54:41.651Z,1780.00
2022-08-09T10:55:58.174Z,1848.00
2022-08-09T10:56:41.761Z,1904.00
2022-08-09T10:57:41.738Z,1932.00
2022-08-09T10:58:42.867Z,1960.00
2022-08-09T10:59:55.349Z,2012.00
2022-08-09T11:00:56.944Z,2024.00
2022-08-09T11:03:06.840Z,2060.00
2022-08-09T11:03:16.004Z,2104.00
2022-08-09T11:03:51.243Z,2148.00
2022-08-09T11:04:55.893Z,2176.00
2022-08-09T11:06:00.296Z,2200.00
2022-08-09T11:06:44.774Z,2256.00
2022-08-09T11:07:54.940Z,2296.00
2022-08-09T11:08:47.524Z,2332.00
2022-08-09T11:09:47.772Z,2396.00
2022-08-09T11:10:53.437Z,2448.00
2022-08-09T11:11:43.537Z,2492.00
2022-08-09T11:12:41.460Z,2548.00
2022-08-09T11:13:49.982Z,2624.00
2022-08-09T11:14:41.472Z,2684.00
2022-08-09T11:16:05.004Z,2772.00
2022-08-09T11:16:41.519Z,2776.00
2022-08-09T11:17:41.953Z,2824.00
2022-08-09T11:18:40.401Z,2920.00
2022-08-09T11:20:11.530Z,2976.00
2022-08-09T11:20:41.351Z,3028.00
2022-08-09T11:21:41.329Z,3088.00
2022-08-09T11:22:40.337Z,3156.00
2022-08-09T11:23:40.333Z,3240.00
2022-08-09T11:24:40.320Z,3312.00
2022-08-09T11:25:47.166Z,3364.00
2022-08-09T11:26:47.422Z,3396.00
2022-08-09T11:28:05.168Z,3428.00
2022-08-09T11:28:56.118Z,3460.00
2022-08-09T11:30:05.566Z,3516.00
2022-08-09T11:30:48.083Z,3588.00
2022-08-09T11:31:43.285Z,3624.00
2022-08-09T11:32:41.273Z,3720.00
2022-08-09T11:33:40.213Z,3860.00
2022-08-09T11:34:40.210Z,3988.00
2022-08-09T11:35:49.188Z,4080.00
2022-08-09T11:36:41.172Z,4116.00
2022-08-09T11:37:40.950Z,4160.00
2022-08-09T11:38:41.525Z,4176.00
2022-08-09T11:39:40.220Z,4200.00
2022-08-09T11:40:40.141Z,4196.00
2022-08-09T11:41:40.489Z,4184.00
2022-08-09T11:42:40.111Z,4160.00
2022-08-09T11:43:40.148Z,4208.00
2022-08-09T11:44:40.100Z,4200.00
2022-08-09T11:45:42.895Z,4192.00
2022-08-09T11:46:40.069Z,4176.00
2022-08-09T11:47:40.051Z,4248.00
2022-08-09T11:48:40.041Z,4192.00
2022-08-09T11:49:42.822Z,4264.00
2022-08-09T11:50:56.091Z,4212.00
2022-08-09T11:53:01.069Z,4272.00
2022-08-09T11:53:21.019Z,4284.00
2022-08-09T11:54:01.274Z,4180.00
2022-08-09T11:54:40.982Z,4288.00
2022-08-09T11:55:53.471Z,4184.00
2022-08-09T11:56:42.530Z,4156.00
2022-08-09T11:57:47.442Z,4164.00
2022-08-09T11:58:40.934Z,4248.00
2022-08-09T11:59:40.943Z,4248.00
2022-08-09T12:00:39.913Z,4112.00
2022-08-09T12:02:20.558Z,4116.00
2022-08-09T12:02:41.089Z,4060.00
2022-08-09T12:03:56.876Z,3964.00
2022-08-09T12:04:40.939Z,4060.00
2022-08-09T12:05:42.375Z,3928.00
2022-08-09T12:06:40.852Z,3940.00
2022-08-09T12:07:41.862Z,3876.00
2022-08-09T12:08:39.812Z,3920.00
2022-08-09T12:09:39.800Z,3804.00
2022-08-09T12:10:40.816Z,3832.00
2022-08-09T12:12:02.114Z,3952.00
2022-08-09T12:12:40.923Z,3772.00
2022-08-09T12:14:09.189Z,3788.00
2022-08-09T12:15:04.144Z,3828.00
2022-08-09T12:15:50.404Z,3800.00
2022-08-09T12:16:40.770Z,3584.00
2022-08-09T12:17:44.378Z,3608.00
2022-08-09T12:18:40.700Z,3484.00
2022-08-09T12:19:40.031Z,3488.00
2022-08-09T12:20:39.681Z,3596.00
2022-08-09T12:21:50.653Z,3824.00
2022-08-09T12:22:40.652Z,3652.00
2022-08-09T12:23:57.867Z,3516.00
2022-08-09T12:24:40.630Z,3388.00
2022-08-09T12:25:49.529Z,3292.00
2022-08-09T12:26:40.621Z,3604.00
2022-08-09T12:28:58.371Z,3072.00
2022-08-09T12:28:59.533Z,3320.00
2022-08-09T12:29:52.289Z,3568.00
2022-08-09T12:30:40.712Z,3472.00
2022-08-09T12:32:01.649Z,2860.00
2022-08-09T12:32:40.886Z,2868.00
2022-08-09T12:33:59.488Z,2896.00
2022-08-09T12:34:40.527Z,2756.00
2022-08-09T12:35:40.673Z,3204.00
2022-08-09T12:36:39.511Z,2776.00
2022-08-09T12:37:49.754Z,2800.00
2022-08-09T12:38:40.473Z,2604.00